createdAt,value
2023-01-21T00:00:59.427Z,39.38
2023-01-21T00:03:52.593Z,40.10
2023-01-21T00:07:06.569Z,41.25
2023-01-21T00:13:58.502Z,40.13
2023-01-21T00:17:26.520Z,41.95
2023-01-21T00:20:17.218Z,44.13
2023-01-21T00:25:09.951Z,44.55
2023-01-21T00:27:54.547Z,43.75
2023-01-21T00:30:46.116Z,43.67
2023-01-21T00:33:36.935Z,43.33
2023-01-21T00:36:47.576Z,39.05
2023-01-21T00:39:35.192Z,41.65
2023-01-21T00:45:27.619Z,41.25
2023-01-21T00:49:52.108Z,41.10
2023-01-21T00:53:34.353Z,38.03
2023-01-21T01:03:50.769Z,34.63
2023-01-21T01:07:41.652Z,35.28
2023-01-21T01:10:29.325Z,34.30
2023-01-21T01:13:18.788Z,34.08
2023-01-21T01:16:29.862Z,34.60
2023-01-21T01:19:31.564Z,36.75
2023-01-21T01:22:29.752Z,37.50
2023-01-21T01:25:27.865Z,34.33
2023-01-21T01:28:34.103Z,33.17
2023-01-21T01:31:43.644Z,30.75
2023-01-21T01:34:34.816Z,32.15
2023-01-21T01:40:27.228Z,33.15
2023-01-21T01:43:26.676Z,36.17
2023-01-21T01:46:15.021Z,37.30
2023-01-21T01:49:14.363Z,36.88
2023-01-21T01:52:04.833Z,35.47
2023-01-21T01:54:54.993Z,35.65
2023-01-21T01:57:47.314Z,35.75
2023-01-21T02:00:35.370Z,35.10
2023-01-21T02:03:42.173Z,36.20
2023-01-21T02:06:29.710Z,34.35
2023-01-21T02:09:17.359Z,34.58
2023-01-21T02:12:06.549Z,36.05
2023-01-21T02:14:54.174Z,35.70
2023-01-21T02:18:22.059Z,34.60
2023-01-21T02:21:38.067Z,34.22
2023-01-21T02:24:28.245Z,34.15
2023-01-21T02:27:49.768Z,36.90
2023-01-21T02:31:05.043Z,32.25
2023-01-21T02:34:23.031Z,34.60
2023-01-21T02:37:57.534Z,31.88
2023-01-21T02:41:10.163Z,33.53
2023-01-21T02:44:27.649Z,31.00
2023-01-21T02:47:34.729Z,30.45
2023-01-21T02:50:35.665Z,29.70
2023-01-21T02:53:30.154Z,30.05
2023-01-21T02:56:25.321Z,28.00
2023-01-21T02:59:21.896Z,28.02
2023-01-21T03:02:35.869Z,26.35
2023-01-21T03:05:41.529Z,27.35
2023-01-21T03:08:51.092Z,26.30
2023-01-21T03:11:40.509Z,25.50
2023-01-21T03:14:58.291Z,26.85
2023-01-21T03:17:57.003Z,26.10
2023-01-21T03:20:57.468Z,26.10
2023-01-21T03:23:49.823Z,26.42
2023-01-21T03:26:45.844Z,25.80
2023-01-21T03:29:38.041Z,25.55
2023-01-21T03:32:29.407Z,24.30
2023-01-21T03:35:30.092Z,24.30
2023-01-21T03:38:34.853Z,25.23
2023-01-21T03:41:28.472Z,25.48
2023-01-21T03:44:20.364Z,24.63
2023-01-21T03:47:28.522Z,23.98
2023-01-21T03:50:28.678Z,25.60
2023-01-21T03:53:17.186Z,25.20
2023-01-21T03:56:09.372Z,27.45
2023-01-21T03:58:58.546Z,26.38
2023-01-21T04:01:53.018Z,26.17
2023-01-21T04:04:40.849Z,26.38
2023-01-21T04:07:34.030Z,26.67
2023-01-21T04:10:21.919Z,21.08
2023-01-21T04:13:13.297Z,27.00
2023-01-21T04:16:07.156Z,25.83
2023-01-21T04:18:55.380Z,24.20
2023-01-21T04:21:43.629Z,26.15
2023-01-21T04:24:34.504Z,26.70
2023-01-21T04:27:22.646Z,27.48
2023-01-21T04:30:11.036Z,29.50
2023-01-21T04:32:58.768Z,27.00
2023-01-21T04:35:46.463Z,26.05
2023-01-21T04:38:34.473Z,28.00
2023-01-21T04:41:25.153Z,26.77
2023-01-21T04:44:12.962Z,26.50
2023-01-21T04:47:00.757Z,27.58
2023-01-21T04:49:48.961Z,27.95
2023-01-21T04:52:36.741Z,28.60
2023-01-21T04:55:26.312Z,28.15
2023-01-21T04:58:14.344Z,28.77
2023-01-21T05:01:02.436Z,27.33
2023-01-21T05:03:50.083Z,27.30
2023-01-21T05:06:37.681Z,28.33
2023-01-21T05:09:25.735Z,28.52
2023-01-21T05:12:13.375Z,27.92
2023-01-21T05:15:00.922Z,28.85
2023-01-21T05:17:48.413Z,25.63
2023-01-21T05:20:35.927Z,28.00
2023-01-21T05:23:23.444Z,28.38
2023-01-21T05:26:10.906Z,27.58
2023-01-21T05:28:58.448Z,26.00
2023-01-21T05:31:45.999Z,26.00
2023-01-21T05:34:33.553Z,24.65
2023-01-21T05:37:21.229Z,26.77
2023-01-21T05:40:09.521Z,26.70
2023-01-21T05:42:57.060Z,27.15
2023-01-21T05:45:44.724Z,26.20
2023-01-21T05:48:32.253Z,27.58
2023-01-21T05:51:19.772Z,30.75
2023-01-21T05:54:07.893Z,28.33
2023-01-21T05:56:55.452Z,29.27
2023-01-21T05:59:42.981Z,32.55
2023-01-21T06:02:30.518Z,30.35
2023-01-21T06:05:18.109Z,30.65
2023-01-21T06:08:05.616Z,31.15
2023-01-21T06:10:56.925Z,31.08
2023-01-21T06:13:44.653Z,31.63
2023-01-21T06:16:32.179Z,31.20
2023-01-21T06:19:19.739Z,30.30
2023-01-21T06:22:07.251Z,29.75
2023-01-21T06:24:54.773Z,32.72
2023-01-21T06:27:42.356Z,31.30
2023-01-21T06:30:29.992Z,31.20
2023-01-21T06:33:17.574Z,29.05
2023-01-21T06:36:05.452Z,30.63
2023-01-21T06:38:53.051Z,31.65
2023-01-21T06:41:40.662Z,32.00
2023-01-21T06:44:28.285Z,31.58
2023-01-21T06:47:17.845Z,30.90
2023-01-21T06:50:05.837Z,32.83
2023-01-21T06:52:53.485Z,30.20
2023-01-21T06:55:41.414Z,31.60
2023-01-21T06:58:29.012Z,29.17
2023-01-21T07:01:16.560Z,30.90
2023-01-21T07:04:04.056Z,29.55
2023-01-21T07:06:51.690Z,31.30
2023-01-21T07:09:39.222Z,31.63
2023-01-21T07:12:27.241Z,32.40
2023-01-21T07:15:15.469Z,30.40
2023-01-21T07:18:03.333Z,30.27
2023-01-21T07:20:51.319Z,31.02
2023-01-21T07:23:38.816Z,32.88
2023-01-21T07:26:26.295Z,33.42
2023-01-21T07:29:14.048Z,31.33
2023-01-21T07:32:01.766Z,32.95
2023-01-21T07:34:49.585Z,33.38
2023-01-21T07:37:37.343Z,33.67
2023-01-21T07:40:24.977Z,32.60
2023-01-21T07:43:14.676Z,33.80
2023-01-21T07:46:02.362Z,31.95
2023-01-21T07:48:54.854Z,30.23
2023-01-21T07:51:42.397Z,30.80
2023-01-21T07:54:33.387Z,30.95
2023-01-21T07:57:21.255Z,30.33
2023-01-21T08:00:09.594Z,30.50
2023-01-21T08:03:02.263Z,29.52
2023-01-21T08:05:53.784Z,28.13
2023-01-21T08:08:42.861Z,24.52
2023-01-21T08:11:34.282Z,26.20
2023-01-21T08:14:22.814Z,24.67
2023-01-21T08:17:10.832Z,24.13
2023-01-21T08:20:07.181Z,24.42
2023-01-21T08:22:56.523Z,21.30
2023-01-21T08:25:44.556Z,22.65
2023-01-21T08:28:32.506Z,20.30
2023-01-21T08:31:31.910Z,20.65
2023-01-21T08:34:20.134Z,20.23
2023-01-21T08:37:09.686Z,20.70
2023-01-21T08:40:00.222Z,19.55
2023-01-21T08:42:53.317Z,19.38
2023-01-21T08:45:41.584Z,18.90
2023-01-21T08:48:32.226Z,19.08
2023-01-21T08:51:25.160Z,18.40
2023-01-21T08:54:15.473Z,17.53
2023-01-21T08:57:09.364Z,17.23
2023-01-21T09:02:45.517Z,19.13
2023-01-21T09:05:39.129Z,17.90
2023-01-21T09:08:29.098Z,19.05
2023-01-21T09:11:22.685Z,19.10
2023-01-21T09:14:11.594Z,20.05
2023-01-21T09:17:04.880Z,19.73
2023-01-21T09:19:58.124Z,20.27
2023-01-21T09:22:46.546Z,18.77
2023-01-21T09:25:38.214Z,17.48
2023-01-21T09:28:32.523Z,17.63
2023-01-21T09:31:28.318Z,18.45
2023-01-21T09:34:17.732Z,19.45
2023-01-21T09:37:05.979Z,17.95
2023-01-21T09:40:03.679Z,19.60
2023-01-21T09:42:59.712Z,17.05
2023-01-21T09:49:32.342Z,17.83
2023-01-21T09:52:32.407Z,18.70
2023-01-21T09:55:48.784Z,18.70
2023-01-21T09:59:03.327Z,19.15
2023-01-21T10:08:58.098Z,17.15
2023-01-21T11:17:07.214Z,21.23
2023-01-21T11:20:26.418Z,21.10
2023-01-21T11:30:52.036Z,17.52
2023-01-21T11:41:47.654Z,17.00
2023-01-21T11:45:02.134Z,17.75
2023-01-21T11:51:14.604Z,16.33
2023-01-21T11:54:22.651Z,17.55
2023-01-21T12:29:35.735Z,16.17
2023-01-21T12:33:32.476Z,14.02
2023-01-21T12:36:39.424Z,15.93
2023-01-21T12:40:29.643Z,14.35
2023-01-21T12:43:25.752Z,13.27
2023-01-21T12:46:26.071Z,14.43
2023-01-21T12:49:48.262Z,14.48
2023-01-21T12:52:41.878Z,11.95
2023-01-21T12:55:40.573Z,14.43
2023-01-21T12:58:35.255Z,13.77
2023-01-21T13:01:53.971Z,12.30
2023-01-21T13:04:53.731Z,11.18
2023-01-21T13:07:53.880Z,11.80
2023-01-21T13:10:47.625Z,11.55
2023-01-21T13:14:17.934Z,9.32
2023-01-21T13:17:21.864Z,11.52
2023-01-21T14:09:12.732Z,8.48
2023-01-21T14:12:53.888Z,11.23
2023-01-21T14:16:25.695Z,9.93
2023-01-21T14:20:06.586Z,11.15
2023-01-21T14:34:23.312Z,18.23
2023-01-21T14:37:57.218Z,12.13
2023-01-21T14:41:08.839Z,16.58
2023-01-21T14:48:09.120Z,10.40
2023-01-21T14:51:17.410Z,10.18
2023-01-21T14:54:16.489Z,11.40
2023-01-21T15:01:11.349Z,14.23
2023-01-21T15:04:37.778Z,13.07
2023-01-21T15:11:06.609Z,11.27
2023-01-21T15:14:22.781Z,15.27
2023-01-21T15:17:51.378Z,17.85
2023-01-21T15:20:46.008Z,13.35
2023-01-21T15:23:58.023Z,17.35
2023-01-21T15:27:28.047Z,14.32
2023-01-21T15:30:22.320Z,15.23
2023-01-21T15:33:29.582Z,16.33
2023-01-21T15:36:25.547Z,15.98
2023-01-21T15:43:04.173Z,11.43
2023-01-21T15:46:13.610Z,14.93
2023-01-21T15:49:26.196Z,11.05
2023-01-21T15:52:26.500Z,13.00
2023-01-21T15:55:34.616Z,16.95
2023-01-21T16:01:40.364Z,14.02
2023-01-21T16:04:38.769Z,16.42
2023-01-21T16:07:26.491Z,14.60
2023-01-21T16:10:43.128Z,14.88
2023-01-21T16:14:06.519Z,11.82
2023-01-21T16:17:05.469Z,13.13
2023-01-21T16:20:00.419Z,14.45
2023-01-21T16:22:52.212Z,12.80
2023-01-21T16:25:51.501Z,12.02
2023-01-21T16:28:51.512Z,12.10
2023-01-21T16:31:50.284Z,12.80
2023-01-21T16:34:45.488Z,11.10
2023-01-21T16:37:34.435Z,14.73
2023-01-21T16:40:31.159Z,27.48
2023-01-21T16:43:27.737Z,13.02
2023-01-21T16:46:40.393Z,12.52
2023-01-21T16:49:28.592Z,13.70
2023-01-21T16:52:41.877Z,15.10
2023-01-21T16:55:33.258Z,12.80
2023-01-21T16:58:27.403Z,12.10
2023-01-21T17:01:16.659Z,11.20
2023-01-21T17:04:04.731Z,26.00
2023-01-21T17:07:04.963Z,13.45
2023-01-21T17:10:09.605Z,28.25
2023-01-21T17:13:10.387Z,14.07
2023-01-21T17:16:01.163Z,16.45
2023-01-21T17:19:30.823Z,16.67
2023-01-21T17:22:31.449Z,14.43
2023-01-21T17:25:27.350Z,13.43
2023-01-21T17:28:44.133Z,17.80
2023-01-21T17:31:38.420Z,14.23
2023-01-21T17:34:44.889Z,13.02
2023-01-21T17:37:52.815Z,16.08
2023-01-21T17:40:46.423Z,27.92
2023-01-21T17:43:47.097Z,18.67
2023-01-21T17:46:48.043Z,20.58
2023-01-21T17:49:46.107Z,15.98
2023-01-21T17:52:45.500Z,9.68
2023-01-21T17:56:13.112Z,12.40
2023-01-21T17:59:07.830Z,11.00
2023-01-21T18:02:05.801Z,15.55
2023-01-21T18:05:01.339Z,18.98
2023-01-21T18:07:50.343Z,14.23
2023-01-21T18:10:38.821Z,12.30
2023-01-21T18:13:29.510Z,12.10
2023-01-21T18:16:21.261Z,13.45
2023-01-21T18:19:29.828Z,12.70
2023-01-21T18:22:28.263Z,14.10
2023-01-21T18:25:16.998Z,11.98
2023-01-21T18:28:11.053Z,11.82
2023-01-21T18:34:02.896Z,12.13
2023-01-21T18:36:50.894Z,12.13
2023-01-21T18:39:38.896Z,13.27
2023-01-21T18:42:27.190Z,16.88
2023-01-21T18:45:36.961Z,15.18
2023-01-21T18:48:30.271Z,14.25
2023-01-21T18:51:18.181Z,14.07
2023-01-21T18:54:11.432Z,10.75
2023-01-21T18:57:00.048Z,9.20
2023-01-21T18:59:51.183Z,10.55
2023-01-21T19:02:41.390Z,11.88
2023-01-21T19:05:39.234Z,10.70
2023-01-21T19:08:29.515Z,10.68
2023-01-21T19:11:18.315Z,10.07
2023-01-21T19:14:07.328Z,10.77
2023-01-21T19:16:57.701Z,11.00
2023-01-21T19:19:45.462Z,10.38
2023-01-21T19:22:33.797Z,10.02
2023-01-21T19:25:23.670Z,9.75
2023-01-21T19:28:15.650Z,10.95
2023-01-21T19:31:12.316Z,14.20
2023-01-21T19:34:00.285Z,10.57
2023-01-21T19:36:56.537Z,10.23
2023-01-21T19:39:52.645Z,10.73
2023-01-21T19:42:48.178Z,21.08
2023-01-21T19:45:38.337Z,11.05
2023-01-21T19:48:28.683Z,12.38
2023-01-21T19:51:21.889Z,11.73
2023-01-21T19:54:13.992Z,10.80
2023-01-21T19:57:01.988Z,10.68
2023-01-21T19:59:53.568Z,10.63
2023-01-21T20:02:41.321Z,9.93
2023-01-21T20:05:39.763Z,10.02
2023-01-21T20:08:34.234Z,10.15
2023-01-21T20:11:26.143Z,11.05
2023-01-21T20:14:22.376Z,10.27
2023-01-21T20:17:42.531Z,9.68
2023-01-21T20:20:50.024Z,10.40
2023-01-21T20:23:55.435Z,11.15
2023-01-21T20:26:50.547Z,10.43
2023-01-21T20:29:49.617Z,10.10
2023-01-21T20:33:01.687Z,9.13
2023-01-21T20:42:34.713Z,10.00
2023-01-21T20:49:39.876Z,9.65
2023-01-21T20:52:32.440Z,10.23
2023-01-21T20:55:44.894Z,10.50
2023-01-21T20:59:33.964Z,10.07
2023-01-21T21:02:41.094Z,9.75
2023-01-21T21:07:02.600Z,11.05
2023-01-21T21:10:46.899Z,10.38
2023-01-21T21:24:42.063Z,10.20
2023-01-21T21:27:52.037Z,12.68
2023-01-21T21:31:06.987Z,11.82
2023-01-21T21:34:25.289Z,12.52
2023-01-21T21:51:47.018Z,14.27
2023-01-21T21:55:12.366Z,14.70
2023-01-21T21:58:41.988Z,14.93
2023-01-21T22:04:57.016Z,14.70
2023-01-21T22:07:53.815Z,15.90
2023-01-21T22:11:17.079Z,16.50
2023-01-21T22:23:02.100Z,15.20
2023-01-21T22:32:41.152Z,14.25
2023-01-21T22:35:50.729Z,15.60
2023-01-21T22:38:57.475Z,14.30
2023-01-21T22:42:07.302Z,13.85
2023-01-21T22:52:08.507Z,13.77
2023-01-21T22:55:55.721Z,14.75
2023-01-21T22:58:46.678Z,13.45
2023-01-21T23:01:37.180Z,13.40
2023-01-21T23:11:52.937Z,12.07
2023-01-21T23:15:02.461Z,12.77
2023-01-21T23:25:00.918Z,11.65
2023-01-21T23:27:59.648Z,10.80
2023-01-21T23:32:05.942Z,12.38
2023-01-21T23:34:58.175Z,11.02
2023-01-21T23:38:28.813Z,11.18
2023-01-21T23:41:55.043Z,10.77
2023-01-21T23:45:07.223Z,11.38
2023-01-21T23:48:07.628Z,10.70
2023-01-21T23:58:14.966Z,9.85
